createdAt,value
2022-12-09T00:01:22.062Z,-0.10
2022-12-09T00:03:56.168Z,-0.10
2022-12-09T00:06:47.208Z,-0.10
2022-12-09T00:09:19.824Z,-0.10
2022-12-09T00:14:26.146Z,-0.20
2022-12-09T00:16:58.793Z,-0.30
2022-12-09T00:19:30.944Z,0.90
2022-12-09T00:22:03.973Z,0.40
2022-12-09T00:30:06.109Z,-0.10
2022-12-09T00:35:11.647Z,-0.20
2022-12-09T00:37:43.783Z,-0.20
2022-12-09T00:40:17.071Z,-0.20
2022-12-09T00:42:50.569Z,-0.30
2022-12-09T00:45:23.646Z,-0.30
2022-12-09T00:47:56.056Z,-0.20
2022-12-09T00:50:28.352Z,-0.30
2022-12-09T00:53:00.756Z,-0.40
2022-12-09T00:55:33.271Z,0.80
2022-12-09T00:58:06.010Z,-0.40
2022-12-09T01:00:39.174Z,-0.40
2022-12-09T01:03:16.448Z,-0.40
2022-12-09T01:05:50.628Z,-0.40
2022-12-09T01:08:24.324Z,-0.50
2022-12-09T01:10:57.389Z,-0.50
2022-12-09T01:13:29.266Z,-0.50
2022-12-09T01:16:02.257Z,-0.50
2022-12-09T01:18:34.635Z,-0.60
2022-12-09T01:21:06.645Z,-0.50
2022-12-09T01:23:39.829Z,-0.50
2022-12-09T01:26:12.099Z,-0.50
2022-12-09T01:28:45.021Z,-0.50
2022-12-09T01:31:20.431Z,-0.50
2022-12-09T01:33:55.978Z,-0.50
2022-12-09T01:36:30.523Z,-0.40
2022-12-09T01:39:03.548Z,-0.30
2022-12-09T01:41:36.030Z,-0.20
2022-12-09T01:44:25.414Z,-0.10
2022-12-09T01:47:02.419Z,-0.10
2022-12-09T01:49:48.901Z,-0.30
2022-12-09T01:52:23.221Z,-0.30
2022-12-09T01:54:57.239Z,-0.30
2022-12-09T01:57:29.223Z,-0.40
2022-12-09T02:00:02.739Z,-0.20
2022-12-09T02:02:38.516Z,-0.20
2022-12-09T02:05:12.235Z,-0.20
2022-12-09T02:07:47.120Z,-0.20
2022-12-09T02:10:22.548Z,-0.10
2022-12-09T02:13:28.001Z,0.00
2022-12-09T02:16:05.581Z,0.20
2022-12-09T02:18:50.754Z,0.20
2022-12-09T02:21:38.901Z,0.20
2022-12-09T02:24:41.960Z,0.10
2022-12-09T02:27:43.357Z,0.10
2022-12-09T02:30:25.751Z,-0.10
2022-12-09T02:33:41.504Z,-0.10
2022-12-09T02:36:20.987Z,-0.20
2022-12-09T02:38:54.270Z,-0.10
2022-12-09T02:41:29.880Z,-0.10
2022-12-09T02:44:15.221Z,0.00
2022-12-09T02:46:48.419Z,0.00
2022-12-09T02:49:23.451Z,0.20
2022-12-09T02:51:57.358Z,0.20
2022-12-09T02:54:32.366Z,0.10
2022-12-09T02:57:13.510Z,0.20
2022-12-09T02:59:46.866Z,0.20
2022-12-09T03:02:30.360Z,0.20
2022-12-09T03:05:36.744Z,0.30
2022-12-09T03:08:46.713Z,0.20
2022-12-09T03:11:23.731Z,0.20
2022-12-09T03:14:26.089Z,0.20
2022-12-09T03:17:20.569Z,0.30
2022-12-09T03:20:05.671Z,0.20
2022-12-09T03:22:42.111Z,0.40
2022-12-09T03:25:22.608Z,0.40
2022-12-09T03:28:02.178Z,0.40
2022-12-09T03:30:38.402Z,0.40
2022-12-09T03:33:13.614Z,0.50
2022-12-09T03:35:56.007Z,0.50
2022-12-09T03:38:33.869Z,0.40
2022-12-09T03:41:33.618Z,0.30
2022-12-09T03:44:16.917Z,0.20
2022-12-09T03:46:49.259Z,0.20
2022-12-09T03:49:22.221Z,0.20
2022-12-09T03:52:01.679Z,0.30
2022-12-09T03:54:46.654Z,0.30
2022-12-09T03:57:20.574Z,0.20
2022-12-09T04:00:03.183Z,0.20
2022-12-09T04:02:45.366Z,0.10
2022-12-09T04:05:18.522Z,0.10
2022-12-09T04:07:51.162Z,0.10
2022-12-09T04:10:23.790Z,0.10
2022-12-09T04:12:56.446Z,0.00
2022-12-09T04:15:29.409Z,0.00
2022-12-09T04:18:01.626Z,0.00
2022-12-09T04:20:34.615Z,1.40
2022-12-09T04:23:07.206Z,0.10
2022-12-09T04:25:39.631Z,0.10
2022-12-09T04:28:11.550Z,0.00
2022-12-09T04:30:48.173Z,0.10
2022-12-09T04:33:20.957Z,0.10
2022-12-09T04:35:52.946Z,0.10
2022-12-09T04:38:25.960Z,0.00
2022-12-09T04:41:04.031Z,0.00
2022-12-09T04:43:37.117Z,0.20
2022-12-09T04:46:13.832Z,0.10
2022-12-09T04:48:47.035Z,2.60
2022-12-09T04:51:18.991Z,1.40
2022-12-09T04:53:51.973Z,0.90
2022-12-09T04:56:23.935Z,0.60
2022-12-09T04:58:56.783Z,0.40
2022-12-09T05:01:31.502Z,0.40
2022-12-09T05:04:05.780Z,0.30
2022-12-09T05:06:38.044Z,0.30
2022-12-09T05:09:13.427Z,0.30
2022-12-09T05:11:45.816Z,0.20
2022-12-09T05:14:19.095Z,0.20
2022-12-09T05:19:24.906Z,0.30
2022-12-09T05:21:56.969Z,0.30
2022-12-09T05:24:30.195Z,0.20
2022-12-09T05:27:02.159Z,0.20
2022-12-09T05:29:35.258Z,0.20
2022-12-09T05:32:08.569Z,0.10
2022-12-09T05:34:41.214Z,0.20
2022-12-09T05:37:16.760Z,0.20
2022-12-09T05:39:48.694Z,0.20
2022-12-09T05:42:21.639Z,0.10
2022-12-09T05:44:55.328Z,0.10
2022-12-09T05:47:29.970Z,0.10
2022-12-09T05:50:08.076Z,0.10
2022-12-09T05:52:40.918Z,0.00
2022-12-09T05:55:14.882Z,0.00
2022-12-09T05:57:47.688Z,0.10
2022-12-09T06:00:22.666Z,0.10
2022-12-09T06:02:55.213Z,0.20
2022-12-09T06:05:28.352Z,0.20
2022-12-09T06:08:05.272Z,0.20
2022-12-09T06:10:41.375Z,0.20
2022-12-09T06:13:15.307Z,0.30
2022-12-09T06:15:47.712Z,0.30
2022-12-09T06:18:20.791Z,0.30
2022-12-09T06:20:52.984Z,0.20
2022-12-09T06:23:26.995Z,0.20
2022-12-09T06:25:59.657Z,0.20
2022-12-09T06:28:33.933Z,0.20
2022-12-09T06:31:06.185Z,0.30
2022-12-09T06:33:57.247Z,0.30
2022-12-09T06:36:32.105Z,0.40
2022-12-09T06:39:10.000Z,0.40
2022-12-09T06:41:43.482Z,0.40
2022-12-09T06:44:23.512Z,0.20
2022-12-09T06:46:56.854Z,0.20
2022-12-09T06:49:30.006Z,0.40
2022-12-09T06:52:02.526Z,0.50
2022-12-09T06:54:35.884Z,0.50
2022-12-09T06:57:08.004Z,0.50
2022-12-09T06:59:44.055Z,0.50
2022-12-09T07:02:17.005Z,0.60
2022-12-09T07:04:55.228Z,0.70
2022-12-09T07:10:07.887Z,0.60
2022-12-09T07:15:14.553Z,0.60
2022-12-09T07:17:50.666Z,0.60
2022-12-09T07:20:23.105Z,0.60
2022-12-09T07:22:56.809Z,0.60
2022-12-09T07:25:29.637Z,0.50
2022-12-09T07:28:02.451Z,0.60
2022-12-09T07:30:37.978Z,0.60
2022-12-09T07:33:10.947Z,0.50
2022-12-09T07:35:44.720Z,0.50
2022-12-09T07:40:50.361Z,0.50
2022-12-09T07:43:23.207Z,0.50
2022-12-09T07:45:55.284Z,0.40
2022-12-09T07:48:28.362Z,0.50
2022-12-09T07:51:04.738Z,0.50
2022-12-09T07:53:41.927Z,0.50
2022-12-09T07:56:16.350Z,0.50
2022-12-09T07:58:54.277Z,0.50
2022-12-09T08:01:30.130Z,0.50
2022-12-09T08:04:06.448Z,0.50
2022-12-09T08:06:40.418Z,0.50
2022-12-09T08:09:14.209Z,0.60
2022-12-09T08:11:47.763Z,0.50
2022-12-09T08:14:20.460Z,0.50
2022-12-09T08:16:54.010Z,0.70
2022-12-09T08:19:26.315Z,0.70
2022-12-09T08:21:59.277Z,0.70
2022-12-09T08:24:31.404Z,0.80
2022-12-09T08:27:04.446Z,1.00
2022-12-09T08:29:37.298Z,1.10
2022-12-09T08:32:09.644Z,1.10
2022-12-09T08:34:41.952Z,1.20
2022-12-09T08:37:15.182Z,1.30
2022-12-09T08:42:20.683Z,1.30
2022-12-09T08:44:58.582Z,1.40
2022-12-09T08:47:37.912Z,1.50
2022-12-09T08:50:11.269Z,1.50
2022-12-09T08:52:43.816Z,1.50
2022-12-09T08:55:15.839Z,1.30
2022-12-09T08:57:48.914Z,1.30
2022-12-09T09:00:21.107Z,1.30
2022-12-09T09:05:27.160Z,1.40
2022-12-09T09:08:00.183Z,1.40
2022-12-09T09:10:32.772Z,1.40
2022-12-09T09:13:05.736Z,1.40
2022-12-09T09:15:40.519Z,1.20
2022-12-09T09:20:49.012Z,1.20
2022-12-09T09:23:21.050Z,1.20
2022-12-09T09:25:54.242Z,1.20
2022-12-09T09:28:30.885Z,1.10
2022-12-09T09:31:07.547Z,1.20
2022-12-09T09:33:40.574Z,1.30
2022-12-09T09:36:21.024Z,1.30
2022-12-09T09:39:16.061Z,1.30
2022-12-09T09:41:54.507Z,1.30
2022-12-09T09:44:42.017Z,1.30
2022-12-09T09:47:27.344Z,1.30
2022-12-09T09:50:12.189Z,1.40
2022-12-09T09:52:44.821Z,1.40
2022-12-09T09:55:19.909Z,1.40
2022-12-09T09:57:55.030Z,1.40
2022-12-09T10:00:35.251Z,1.40
2022-12-09T10:03:20.896Z,1.30
2022-12-09T10:06:13.088Z,1.30
2022-12-09T10:09:04.579Z,1.50
2022-12-09T10:12:18.888Z,1.50
2022-12-09T10:17:51.150Z,1.80
2022-12-09T10:20:28.926Z,1.80
2022-12-09T10:23:15.505Z,1.90
2022-12-09T10:26:00.418Z,1.90
2022-12-09T10:28:38.594Z,2.10
2022-12-09T10:31:12.164Z,2.00
2022-12-09T10:33:44.798Z,2.00
2022-12-09T10:36:30.784Z,2.00
2022-12-09T10:39:21.132Z,2.00
2022-12-09T10:42:16.297Z,2.00
2022-12-09T10:47:29.079Z,1.90
2022-12-09T10:50:04.114Z,1.90
2022-12-09T10:52:45.346Z,2.00
2022-12-09T10:55:37.320Z,2.00
2022-12-09T10:58:18.309Z,2.10
2022-12-09T11:01:08.800Z,2.00
2022-12-09T11:03:49.264Z,2.10
2022-12-09T11:06:30.493Z,2.30
2022-12-09T11:09:04.285Z,2.30
2022-12-09T11:11:49.631Z,2.30
2022-12-09T11:14:31.953Z,2.40
2022-12-09T11:17:24.970Z,2.20
2022-12-09T11:20:07.909Z,2.20
2022-12-09T11:22:44.183Z,2.10
2022-12-09T11:25:27.354Z,3.30
2022-12-09T11:28:33.631Z,2.80
2022-12-09T11:31:29.533Z,2.50
2022-12-09T11:34:26.203Z,2.50
2022-12-09T11:36:59.099Z,2.50
2022-12-09T11:39:35.255Z,2.50
2022-12-09T11:42:20.790Z,2.50
2022-12-09T11:45:06.991Z,2.40
2022-12-09T11:50:42.954Z,2.50
2022-12-09T11:53:33.854Z,2.40
2022-12-09T11:56:20.828Z,2.30
2022-12-09T12:01:37.399Z,2.20
2022-12-09T12:04:16.504Z,2.20
2022-12-09T12:06:57.046Z,2.20
2022-12-09T12:09:40.519Z,2.20
2022-12-09T12:12:33.037Z,2.10
2022-12-09T12:15:25.595Z,2.00
2022-12-09T12:21:11.578Z,2.20
2022-12-09T12:23:56.258Z,2.30
2022-12-09T12:27:01.099Z,2.20
2022-12-09T12:29:57.099Z,2.10
2022-12-09T12:36:15.828Z,2.00
2022-12-09T12:39:14.696Z,2.10
2022-12-09T12:42:06.455Z,2.00
2022-12-09T12:45:26.060Z,2.10
2022-12-09T12:48:15.725Z,2.10
2022-12-09T12:51:21.705Z,2.20
2022-12-09T12:54:21.458Z,2.20
2022-12-09T12:57:30.580Z,2.30
2022-12-09T13:00:13.273Z,2.30
2022-12-09T13:03:12.022Z,2.30
2022-12-09T13:05:48.082Z,2.40
2022-12-09T13:08:28.589Z,2.40
2022-12-09T13:11:11.876Z,2.40
2022-12-09T13:13:55.882Z,2.30
2022-12-09T13:16:33.644Z,2.30
2022-12-09T13:19:22.542Z,2.30
2022-12-09T13:21:55.160Z,2.30
2022-12-09T13:24:40.749Z,2.20
2022-12-09T13:27:40.563Z,2.30
2022-12-09T13:30:20.158Z,2.30
2022-12-09T13:33:11.088Z,2.30
2022-12-09T13:36:06.791Z,2.50
2022-12-09T13:38:42.653Z,2.50
2022-12-09T13:41:56.520Z,2.40
2022-12-09T13:44:36.144Z,2.50
2022-12-09T13:47:36.839Z,2.40
2022-12-09T13:50:36.534Z,2.40
2022-12-09T13:53:21.137Z,2.50
2022-12-09T13:56:17.202Z,2.50
2022-12-09T13:59:39.833Z,2.50
2022-12-09T14:05:15.208Z,2.30
2022-12-09T14:07:57.516Z,2.40
2022-12-09T14:10:43.488Z,2.40
2022-12-09T14:13:26.744Z,2.40
2022-12-09T14:16:28.005Z,2.40
2022-12-09T14:19:26.288Z,2.20
2022-12-09T14:22:22.128Z,2.20
2022-12-09T14:24:57.464Z,2.30
2022-12-09T14:27:32.082Z,2.20
2022-12-09T14:30:24.750Z,2.20
2022-12-09T14:32:57.867Z,2.20
2022-12-09T14:35:43.720Z,2.20
2022-12-09T14:42:13.868Z,2.20
2022-12-09T14:44:59.145Z,2.10
2022-12-09T14:47:39.882Z,2.10
2022-12-09T14:50:23.309Z,2.10
2022-12-09T14:53:01.050Z,2.10
2022-12-09T14:55:39.776Z,2.00
2022-12-09T14:58:21.405Z,2.00
2022-12-09T15:01:06.759Z,2.00
2022-12-09T15:03:45.327Z,2.00
2022-12-09T15:06:20.381Z,2.00
2022-12-09T15:08:56.611Z,1.90
2022-12-09T15:11:34.548Z,1.90
2022-12-09T15:14:27.297Z,1.80
2022-12-09T15:17:00.692Z,1.90
2022-12-09T15:22:33.260Z,1.70
2022-12-09T15:25:05.897Z,1.70
2022-12-09T15:27:38.467Z,1.70
2022-12-09T15:30:28.180Z,1.80
2022-12-09T15:33:00.592Z,1.80
2022-12-09T15:35:34.261Z,1.80
2022-12-09T15:38:09.251Z,1.80
2022-12-09T15:41:03.625Z,2.20
2022-12-09T15:43:37.903Z,2.00
2022-12-09T15:46:12.322Z,2.20
2022-12-09T15:48:50.040Z,2.30
2022-12-09T15:51:26.799Z,2.40
2022-12-09T15:54:05.170Z,2.20
2022-12-09T15:56:57.763Z,2.10
2022-12-09T15:59:33.520Z,1.90
2022-12-09T16:02:08.523Z,1.80
2022-12-09T16:04:47.008Z,1.80
2022-12-09T16:07:22.171Z,3.60
2022-12-09T16:10:10.362Z,1.70
2022-12-09T16:12:44.395Z,1.80
2022-12-09T16:15:50.049Z,1.70
2022-12-09T16:18:49.972Z,1.60
2022-12-09T16:21:28.167Z,1.60
2022-12-09T16:24:12.743Z,1.70
2022-12-09T16:26:48.076Z,1.70
2022-12-09T16:29:31.146Z,1.80
2022-12-09T16:32:34.564Z,1.80
2022-12-09T16:35:25.394Z,1.80
2022-12-09T16:37:57.561Z,1.90
2022-12-09T16:40:53.718Z,1.80
2022-12-09T16:43:28.736Z,1.80
2022-12-09T16:46:27.335Z,1.80
2022-12-09T16:49:04.736Z,1.70
2022-12-09T16:51:39.403Z,1.70
2022-12-09T16:54:20.436Z,1.70
2022-12-09T16:56:56.614Z,1.70
2022-12-09T16:59:37.069Z,1.60
2022-12-09T17:02:31.751Z,1.60
2022-12-09T17:05:06.684Z,1.70
2022-12-09T17:07:39.246Z,1.80
2022-12-09T17:10:15.093Z,1.90
2022-12-09T17:12:47.931Z,1.80
2022-12-09T17:15:21.077Z,1.80
2022-12-09T17:17:53.991Z,1.80
2022-12-09T17:20:26.295Z,1.80
2022-12-09T17:25:33.196Z,1.80
2022-12-09T17:28:07.648Z,1.80
2022-12-09T17:30:40.119Z,1.90
2022-12-09T17:33:12.446Z,1.90
2022-12-09T17:35:45.622Z,1.80
2022-12-09T17:38:17.543Z,1.80
2022-12-09T17:40:50.450Z,1.90
2022-12-09T17:43:22.801Z,1.90
2022-12-09T17:48:34.968Z,1.90
2022-12-09T17:51:10.171Z,1.90
2022-12-09T17:53:42.998Z,1.80
2022-12-09T17:56:22.663Z,1.80
2022-12-09T17:59:08.417Z,1.80
2022-12-09T18:01:41.867Z,1.80
2022-12-09T18:04:15.061Z,1.90
2022-12-09T18:06:50.142Z,1.90
2022-12-09T18:09:23.416Z,1.90
2022-12-09T18:11:55.321Z,1.90
2022-12-09T18:14:28.195Z,1.80
2022-12-09T18:17:01.266Z,1.80
2022-12-09T18:19:35.751Z,1.80
2022-12-09T18:22:07.750Z,1.80
2022-12-09T18:24:40.506Z,1.80
2022-12-09T18:27:12.448Z,1.70
2022-12-09T18:29:45.163Z,1.60
2022-12-09T18:32:17.299Z,1.70
2022-12-09T18:34:50.043Z,1.60
2022-12-09T18:37:21.986Z,1.70
2022-12-09T18:42:26.707Z,1.60
2022-12-09T18:44:59.453Z,1.70
2022-12-09T18:47:31.747Z,1.70
2022-12-09T18:50:03.992Z,1.70
2022-12-09T18:52:38.090Z,1.70
2022-12-09T18:55:10.540Z,1.70
2022-12-09T19:00:15.727Z,1.60
2022-12-09T19:02:48.561Z,1.60
2022-12-09T19:05:20.522Z,1.60
2022-12-09T19:07:53.321Z,1.70
2022-12-09T19:10:25.284Z,1.70
2022-12-09T19:12:57.618Z,1.70
2022-12-09T19:15:29.765Z,1.70
2022-12-09T19:18:02.941Z,1.90
2022-12-09T19:20:34.856Z,1.90
2022-12-09T19:25:45.444Z,4.70
2022-12-09T19:28:18.885Z,2.70
2022-12-09T19:30:50.685Z,2.30
2022-12-09T19:33:23.411Z,2.10
2022-12-09T19:35:56.001Z,1.90
2022-12-09T19:38:28.416Z,2.00
2022-12-09T19:41:01.703Z,2.00
2022-12-09T19:43:35.245Z,1.90
2022-12-09T19:46:10.843Z,1.90
2022-12-09T19:48:44.962Z,1.80
2022-12-09T19:51:18.441Z,1.70
2022-12-09T19:53:56.547Z,1.70
2022-12-09T19:56:29.239Z,1.60
2022-12-09T19:59:01.796Z,1.80
2022-12-09T20:01:38.016Z,1.80
2022-12-09T20:04:46.940Z,1.90
2022-12-09T20:07:10.726Z,1.80
2022-12-09T20:09:42.669Z,1.80
2022-12-09T20:12:15.212Z,1.80
2022-12-09T20:17:20.405Z,1.80
2022-12-09T20:19:52.413Z,1.70
2022-12-09T20:22:24.988Z,1.80
2022-12-09T20:24:56.923Z,1.80
2022-12-09T20:27:29.207Z,1.90
2022-12-09T20:30:01.154Z,1.90
2022-12-09T20:32:33.925Z,1.80
2022-12-09T20:35:09.227Z,1.90
2022-12-09T20:37:42.364Z,2.00
2022-12-09T20:40:14.398Z,2.10
2022-12-09T20:42:47.205Z,2.10
2022-12-09T20:45:19.216Z,2.00
2022-12-09T20:47:53.446Z,1.90
2022-12-09T20:52:58.858Z,1.90
2022-12-09T20:55:31.546Z,2.00
2022-12-09T20:58:04.196Z,2.00
2022-12-09T21:00:36.092Z,2.00
2022-12-09T21:03:08.612Z,2.00
2022-12-09T21:05:41.745Z,2.00
2022-12-09T21:08:16.035Z,1.90
2022-12-09T21:10:48.240Z,1.90
2022-12-09T21:15:54.949Z,2.10
2022-12-09T21:18:27.002Z,2.00
2022-12-09T21:20:59.691Z,2.10
2022-12-09T21:23:34.417Z,2.20
2022-12-09T21:26:11.169Z,2.30
2022-12-09T21:28:47.140Z,2.20
2022-12-09T21:31:24.388Z,2.40
2022-12-09T21:33:58.910Z,2.40
2022-12-09T21:36:36.536Z,2.40
2022-12-09T21:39:11.922Z,2.40
2022-12-09T21:41:44.333Z,2.30
2022-12-09T21:44:20.343Z,2.40
2022-12-09T21:46:52.757Z,2.30
2022-12-09T21:49:33.822Z,2.20
2022-12-09T21:52:06.684Z,2.20
2022-12-09T21:54:39.469Z,2.20
2022-12-09T21:57:11.355Z,2.20
2022-12-09T21:59:44.141Z,2.20
2022-12-09T22:02:16.125Z,2.10
2022-12-09T22:04:48.940Z,2.10
2022-12-09T22:07:20.867Z,2.00
2022-12-09T22:09:53.102Z,2.00
2022-12-09T22:12:25.816Z,2.00
2022-12-09T22:14:57.781Z,1.90
2022-12-09T22:17:32.629Z,1.90
2022-12-09T22:20:49.089Z,1.90
2022-12-09T22:23:00.154Z,1.90
2022-12-09T22:25:32.082Z,1.90
2022-12-09T22:28:04.935Z,1.90
2022-12-09T22:30:37.110Z,2.00
2022-12-09T22:33:09.972Z,2.10
2022-12-09T22:35:42.320Z,2.10
2022-12-09T22:38:14.923Z,2.20
2022-12-09T22:40:47.719Z,2.20
2022-12-09T22:43:19.615Z,2.20
2022-12-09T22:45:52.380Z,2.20
2022-12-09T22:48:24.752Z,2.20
2022-12-09T22:50:57.033Z,2.20
2022-12-09T22:53:28.956Z,2.10
2022-12-09T22:56:01.866Z,2.10
2022-12-09T22:58:34.901Z,2.20
2022-12-09T23:01:14.840Z,2.20
2022-12-09T23:03:47.240Z,2.10
2022-12-09T23:06:20.011Z,2.10
2022-12-09T23:08:52.938Z,2.10
2022-12-09T23:11:28.085Z,2.10
2022-12-09T23:14:01.068Z,2.10
2022-12-09T23:16:33.150Z,2.10
2022-12-09T23:19:05.941Z,2.10
2022-12-09T23:21:40.213Z,2.20
2022-12-09T23:24:22.620Z,2.20
2022-12-09T23:26:57.332Z,2.20
2022-12-09T23:29:29.236Z,2.20
2022-12-09T23:32:01.949Z,2.10
2022-12-09T23:34:33.883Z,2.10
2022-12-09T23:37:06.871Z,2.00
2022-12-09T23:39:40.206Z,1.90
2022-12-09T23:42:12.524Z,1.90
2022-12-09T23:44:44.589Z,1.90
2022-12-09T23:47:17.337Z,2.00
2022-12-09T23:49:49.234Z,2.00
2022-12-09T23:52:23.034Z,2.00
2022-12-09T23:54:58.461Z,2.10
2022-12-09T23:57:33.817Z,2.00
